Time;durP1;ratioP1;P1;durP2;ratioP2;P2;SDS_P1;SDS_P2;PMS_P1;PMS_P2;Temp;Humidity;BMP_temperature;BMP_pressure;BME280_temperature;BME280_humidity;BME280_pressure;Samples;Min_cycle;Max_cycle;Signal;HPM_P1;HPM_P2
2021/03/28 00:01:08;;;;;;;95.07;45.20;;;;;;;2.68;64.45;100359.13;117128;1212;23717;-67
2021/03/28 00:03:39;;;;;;;81.77;42.40;;;;;;;2.66;64.35;100358.47;117224;1209;22849;-67
2021/03/28 00:06:19;;;;;;;92.67;46.10;;;;;;;2.62;63.80;100368.77;117065;1212;22875;-67
2021/03/28 00:09:19;;;;;;;94.75;46.10;;;;;;;2.58;64.27;100361.27;117265;1208;22896;-67
2021/03/28 00:11:50;;;;;;;93.50;46.90;;;;;;;2.57;65.13;100356.91;117157;1212;22916;-67
2021/03/28 00:14:36;;;;;;;96.90;44.93;;;;;;;2.56;66.01;100356.07;117243;1212;22865;-67
2021/03/28 00:17:21;;;;;;;84.43;42.27;;;;;;;2.55;66.48;100354.40;117243;1209;22827;-67
2021/03/28 00:20:12;;;;;;;85.17;43.90;;;;;;;2.53;66.25;100359.13;117187;1209;22848;-67
2021/03/28 00:22:50;;;;;;;87.73;43.17;;;;;;;2.52;66.14;100356.62;117232;1209;23014;-67
2021/03/28 00:25:43;;;;;;;78.75;41.05;;;;;;;2.47;65.13;100360.69;117178;1209;22859;-67
2021/03/28 00:28:38;;;;;;;84.50;42.90;;;;;;;2.46;65.82;100364.39;117214;1213;25961;-67
2021/03/28 00:31:15;;;;;;;80.70;39.70;;;;;;;2.43;65.40;100362.10;117116;1209;22909;-67
2021/03/28 00:33:46;;;;;;;76.80;41.60;;;;;;;2.38;65.39;100361.80;117218;1208;22914;-67
2021/03/28 00:36:16;;;;;;;84.70;42.90;;;;;;;2.37;66.14;100365.52;117173;1212;22966;-67
2021/03/28 00:38:51;;;;;;;76.43;42.03;;;;;;;2.36;66.72;100363.01;117219;1212;22902;-66
2021/03/28 00:41:39;;;;;;;79.05;42.45;;;;;;;2.36;66.73;100363.84;117166;1209;23733;-66
2021/03/28 00:44:11;;;;;;;83.30;43.00;;;;;;;2.35;66.56;100362.17;117197;1212;23875;-67
2021/03/28 00:46:42;;;;;;;77.90;39.85;;;;;;;2.33;65.74;100358.83;117265;1209;23452;-67
2021/03/28 00:49:23;;;;;;;86.90;46.00;;;;;;;2.31;66.09;100363.55;117178;1209;23818;-67
2021/03/28 00:51:55;;;;;;;82.45;43.30;;;;;;;2.29;66.67;100367.47;117115;1208;22987;-68
2021/03/28 00:54:34;;;;;;;66.50;35.60;;;;;;;2.27;66.22;100366.81;117190;1212;22963;-67
2021/03/28 00:57:03;;;;;;;75.00;38.55;;;;;;;2.24;66.30;100359.94;117166;1208;22994;-67
2021/03/28 00:59:46;;;;;;;76.75;39.10;;;;;;;2.23;66.22;100365.50;117210;1209;22886;-67
2021/03/28 01:02:53;;;;;;;64.30;35.35;;;;;;;2.18;66.34;100362.52;117108;1212;22942;-67
2021/03/28 01:05:35;;;;;;;69.40;37.00;;;;;;;2.17;66.28;100363.53;117235;1208;22873;-66
2021/03/28 01:08:18;;;;;;;76.23;36.33;;;;;;;2.13;66.67;100368.45;117215;1209;22952;-67
2021/03/28 01:11:16;;;;;;;65.35;35.20;;;;;;;2.12;66.31;100366.78;117240;1208;23123;-67
2021/03/28 01:14:13;;;;;;;73.97;37.47;;;;;;;2.11;66.81;100360.58;117091;1209;22921;-67
2021/03/28 01:17:01;;;;;;;60.15;32.05;;;;;;;2.09;66.58;100359.91;116907;1212;22905;-67
2021/03/28 01:20:09;;;;;;;61.50;33.30;;;;;;;2.07;66.46;100364.64;117212;1209;22907;-67
2021/03/28 01:22:40;;;;;;;67.90;32.25;;;;;;;2.03;66.52;100366.01;117157;1209;22909;-67
2021/03/28 01:25:31;;;;;;;71.57;34.53;;;;;;;2.03;66.34;100373.23;117243;1212;22838;-65
2021/03/28 01:28:17;;;;;;;57.87;31.63;;;;;;;2.00;66.41;100363.71;117100;1209;22940;-66
2021/03/28 01:30:51;;;;;;;56.60;32.17;;;;;;;1.99;65.82;100366.58;117207;1212;23002;-66
2021/03/28 01:33:56;;;;;;;63.30;33.00;;;;;;;1.96;66.01;100372.31;117150;1209;22862;-66
2021/03/28 01:36:34;;;;;;;59.95;30.90;;;;;;;1.94;65.95;100379.71;117250;1209;22927;-67
2021/03/28 01:39:06;;;;;;;66.75;34.25;;;;;;;1.95;66.35;100381.38;117127;1209;24569;-66
2021/03/28 01:41:43;;;;;;;91.30;45.45;;;;;;;1.98;66.88;100379.18;117204;1208;22851;-66
2021/03/28 01:44:28;;;;;;;90.90;45.33;;;;;;;2.01;67.25;100377.98;114750;1212;23199;-66
2021/03/28 01:47:21;;;;;;;98.45;48.25;;;;;;;2.04;66.66;100377.59;117208;1209;23420;-67
2021/03/28 01:50:23;;;;;;;106.60;52.60;;;;;;;2.06;66.50;100378.25;117210;1209;23267;-66
2021/03/28 01:53:03;;;;;;;133.40;61.30;;;;;;;2.07;67.20;100382.61;117255;1208;23468;-66
2021/03/28 01:55:35;;;;;;;140.63;64.30;;;;;;;2.09;67.82;100376.05;116562;1212;23146;-67
2021/03/28 01:58:12;;;;;;;122.13;58.20;;;;;;;2.12;67.86;100383.75;117204;1209;22962;-66
2021/03/28 02:01:07;;;;;;;117.23;53.98;;;;;;;2.12;66.75;100373.00;117145;1209;23660;-66
2021/03/28 02:03:56;;;;;;;124.30;52.30;;;;;;;2.12;67.28;100378.38;117340;1212;22861;-68
2021/03/28 02:06:48;;;;;;;94.75;44.00;;;;;;;2.10;66.41;100377.72;117223;1209;22924;-67
2021/03/28 02:09:31;;;;;;;102.10;44.90;;;;;;;2.07;66.74;100385.30;117192;1208;22806;-66
2021/03/28 02:12:02;;;;;;;105.87;48.10;;;;;;;2.04;66.07;100381.13;117257;1209;22950;-67
2021/03/28 02:14:41;;;;;;;113.57;48.93;;;;;;;2.02;66.11;100377.77;117255;1209;22867;-67
2021/03/28 02:17:28;;;;;;;111.70;52.35;;;;;;;2.00;66.31;100376.31;117282;1209;22810;-66
2021/03/28 02:20:22;;;;;;;121.70;54.07;;;;;;;1.96;66.61;100372.31;117261;1212;22868;-66
2021/03/28 02:22:59;;;;;;;100.90;48.95;;;;;;;1.92;66.42;100376.36;117272;1212;22849;-66
2021/03/28 02:25:46;;;;;;;112.00;47.15;;;;;;;1.90;65.90;100384.61;117155;1209;22923;-66
2021/03/28 02:28:50;;;;;;;109.17;53.00;;;;;;;1.86;65.50;100380.63;117387;1208;22871;-66
2021/03/28 02:31:47;;;;;;;107.97;49.80;;;;;;;1.83;65.96;100369.41;117153;1208;22913;-67
2021/03/28 02:34:28;;;;;;;105.53;48.67;;;;;;;1.80;66.66;100377.81;117298;1212;22883;-66
2021/03/28 02:36:56;;;;;;;108.47;48.97;;;;;;;1.78;66.37;100378.83;117101;1208;23086;-68
2021/03/28 02:39:32;;;;;;;108.60;51.37;;;;;;;1.76;66.65;100367.42;117352;1209;24177;-68
2021/03/28 02:42:07;;;;;;;110.77;52.57;;;;;;;1.74;66.45;100376.67;117104;1209;23680;-67
2021/03/28 02:45:05;;;;;;;116.33;54.67;;;;;;;1.72;67.40;100371.51;117204;1209;23782;-66
2021/03/28 02:48:20;;;;;;;99.63;46.28;;;;;;;1.70;67.32;100376.22;117141;1212;22832;-67
2021/03/28 02:51:06;;;;;;;97.70;43.87;;;;;;;1.68;66.83;100375.56;116990;1212;22938;-66
2021/03/28 02:53:48;;;;;;;93.77;40.70;;;;;;;1.66;66.36;100368.69;117328;1209;22915;-66
2021/03/28 02:56:36;;;;;;;87.43;41.37;;;;;;;1.62;66.67;100362.84;117299;1209;22897;-67
2021/03/28 02:59:35;;;;;;;98.23;44.80;;;;;;;1.64;67.05;100370.72;117240;1208;23759;-67
2021/03/28 03:02:35;;;;;;;93.03;42.53;;;;;;;1.63;67.08;100369.05;117104;1209;23696;-66
2021/03/28 03:05:37;;;;;;;77.70;38.10;;;;;;;1.62;67.13;100375.42;117191;1209;23810;-67
2021/03/28 03:08:20;;;;;;;83.70;39.30;;;;;;;1.58;66.97;100366.92;113420;1212;23136;-66
2021/03/28 03:11:10;;;;;;;81.60;36.70;;;;;;;1.56;67.03;100368.11;117328;1209;23063;-68
2021/03/28 03:14:08;;;;;;;77.33;36.10;;;;;;;1.53;66.55;100369.30;117129;1208;22866;-67
2021/03/28 03:16:38;;;;;;;76.67;36.17;;;;;;;1.50;66.63;100366.95;117197;1212;22915;-67
2021/03/28 03:19:30;;;;;;;69.90;35.63;;;;;;;1.50;67.74;100371.48;117215;1208;22864;-68
2021/03/28 03:22:40;;;;;;;68.93;34.50;;;;;;;1.50;67.50;100376.86;117142;1209;22838;-67
2021/03/28 03:25:26;;;;;;;74.50;36.77;;;;;;;1.47;66.92;100374.53;117208;1209;23005;-67
2021/03/28 03:28:30;;;;;;;68.73;31.60;;;;;;;1.45;67.45;100376.55;117123;1212;22915;-67
2021/03/28 03:31:35;;;;;;;61.60;31.83;;;;;;;1.45;66.75;100374.70;117276;1208;23025;-67
2021/03/28 03:34:21;;;;;;;59.93;31.10;;;;;;;1.44;66.97;100373.06;117231;1209;23451;-66
2021/03/28 03:36:58;;;;;;;63.13;31.10;;;;;;;1.44;67.53;100375.75;117373;1209;22840;-67
2021/03/28 03:39:32;;;;;;;;;;;;;;;1.42;67.40;100377.77;115200;1216;23147;-67
2021/03/28 03:42:37;;;;;;;58.07;28.83;;;;;;;1.39;67.86;100372.75;117221;1209;22149;-67
2021/03/28 03:45:25;;;;;;;58.33;29.83;;;;;;;1.38;67.32;100379.97;117182;1208;22851;-67
2021/03/28 03:47:55;;;;;;;55.73;29.28;;;;;;;1.37;67.09;100369.40;117227;1208;22872;-67
2021/03/28 03:50:38;;;;;;;51.67;28.73;;;;;;;1.36;67.47;100376.62;117359;1208;22948;-67
2021/03/28 03:53:18;;;;;;;59.13;28.53;;;;;;;1.37;67.75;100375.61;117187;1212;22880;-67
2021/03/28 03:56:07;;;;;;;56.03;28.50;;;;;;;1.39;67.91;100376.27;117284;1209;22948;-67
2021/03/28 03:58:38;;;;;;;53.40;27.30;;;;;;;1.43;67.92;100374.07;117147;1208;23034;-67
2021/03/28 04:01:14;;;;;;;59.90;28.23;;;;;;;1.43;67.69;100378.61;117265;1208;23536;-67
2021/03/28 04:04:01;;;;;;;56.50;27.70;;;;;;;1.44;67.80;100377.59;117136;1209;23722;-67
2021/03/28 04:06:43;;;;;;;56.47;28.33;;;;;;;1.46;68.07;100381.75;117221;1209;24138;-67
2021/03/28 04:09:36;;;;;;;58.70;28.77;;;;;;;1.49;68.70;100381.39;117108;1208;22906;-67
2021/03/28 04:12:24;;;;;;;53.23;26.80;;;;;;;1.53;68.80;100389.94;117178;1209;22948;-67
2021/03/28 04:15:07;;;;;;;55.30;26.70;;;;;;;1.56;68.90;100382.38;117115;1212;22902;-67
2021/03/28 04:17:53;;;;;;;51.00;26.25;;;;;;;1.62;68.70;100378.11;117311;1208;22833;-68
2021/03/28 04:20:27;;;;;;;52.80;27.47;;;;;;;1.66;68.97;100391.02;117213;1209;22840;-67
2021/03/28 04:23:30;;;;;;;52.33;24.57;;;;;;;1.74;69.62;100393.63;117281;1208;22894;-67
2021/03/28 04:26:13;;;;;;;49.10;25.07;;;;;;;1.83;69.07;100388.20;117131;1209;23531;-67
2021/03/28 04:28:57;;;;;;;47.95;25.95;;;;;;;1.91;69.17;100396.19;117198;1212;22971;-67
2021/03/28 04:31:28;;;;;;;52.20;26.47;;;;;;;2.01;70.26;100394.11;117048;1208;23078;-67
2021/03/28 04:34:33;;;;;;;48.37;26.30;;;;;;;2.11;69.87;100389.30;117330;1209;22833;-67
2021/03/28 04:37:45;;;;;;;46.77;24.50;;;;;;;2.25;70.70;100398.42;117147;1208;22851;-67
2021/03/28 04:40:24;;;;;;;41.80;23.90;;;;;;;2.40;70.20;100392.05;116811;1216;22885;-67
2021/03/28 04:42:52;;;;;;;48.55;27.00;;;;;;;2.52;70.45;100392.42;116806;1215;22832;-67
2021/03/28 04:45:38;;;;;;;48.40;25.90;;;;;;;2.66;70.86;100388.90;116718;1215;22941;-67
2021/03/28 04:48:43;;;;;;;57.20;26.90;;;;;;;2.82;70.53;100390.56;116808;1215;22999;-70
2021/03/28 04:51:32;;;;;;;46.27;25.70;;;;;;;2.99;70.86;100391.20;116714;1214;23089;-68
2021/03/28 04:54:09;;;;;;;46.23;24.33;;;;;;;3.13;70.14;100387.66;116818;1215;22822;-67
2021/03/28 04:56:39;;;;;;;44.80;25.05;;;;;;;3.27;70.84;100388.65;116715;1214;22851;-67
2021/03/28 04:59:09;;;;;;;43.20;24.65;;;;;;;3.41;70.84;100390.47;116813;1216;22907;-67
2021/03/28 05:01:51;;;;;;;40.40;23.10;;;;;;;3.57;70.12;100397.48;116679;1214;22827;-67
2021/03/28 05:04:43;;;;;;;40.90;22.20;;;;;;;3.72;69.17;100390.17;116815;1214;22885;-67
2021/03/28 05:07:32;;;;;;;42.95;24.00;;;;;;;3.90;69.28;100404.84;116700;1214;22888;-67
2021/03/28 05:10:12;;;;;;;53.30;28.10;;;;;;;4.09;69.24;100395.28;116838;1215;22992;-67
2021/03/28 05:13:14;;;;;;;65.97;33.10;;;;;;;4.27;67.77;100394.81;116708;1215;22944;-68
2021/03/28 05:16:03;;;;;;;67.70;34.80;;;;;;;4.45;67.83;100394.33;116065;1218;23231;-67
2021/03/28 05:19:05;;;;;;;77.43;42.50;;;;;;;4.65;67.10;100392.57;117145;1211;22802;-67
2021/03/28 05:21:55;;;;;;;79.30;52.40;;;;;;;4.79;66.50;100386.22;117194;1208;22800;-68
2021/03/28 05:25:11;;;;;;;65.00;36.15;;;;;;;5.03;65.51;100386.77;117341;1209;22860;-68
2021/03/28 05:28:03;;;;;;;61.70;31.20;;;;;;;5.22;64.15;100391.41;116822;1212;22886;-68
2021/03/28 05:30:37;;;;;;;69.75;36.45;;;;;;;5.40;63.71;100388.15;116935;1212;23644;-67
2021/03/28 05:33:29;;;;;;;66.00;32.30;;;;;;;5.55;62.77;100391.52;116753;1212;22917;-67
2021/03/28 05:36:15;;;;;;;54.85;31.80;;;;;;;5.72;62.49;100386.57;116907;1212;23796;-67
2021/03/28 05:39:18;;;;;;;58.90;30.57;;;;;;;5.86;62.20;100391.80;116826;1216;23882;-68
2021/03/28 05:41:59;;;;;;;46.20;26.15;;;;;;;6.03;61.78;100389.56;116871;1212;22904;-68
2021/03/28 05:44:58;;;;;;;49.73;27.10;;;;;;;6.19;60.98;100394.56;116820;1212;22897;-67
2021/03/28 05:47:37;;;;;;;;;;;;;;;6.35;60.46;100393.28;113224;1220;23137;-65
2021/03/28 05:50:18;;;;;;;59.80;30.10;;;;;;;6.49;60.32;100389.55;112989;1212;24305;-65
2021/03/28 05:53:04;;;;;;;58.30;33.55;;;;;;;6.65;60.27;100388.25;116768;1216;22932;-66
2021/03/28 05:55:53;;;;;;;62.30;35.60;;;;;;;6.78;60.07;100393.64;116830;1212;22945;-65
2021/03/28 05:58:53;;;;;;;69.60;32.10;;;;;;;6.94;59.95;100395.89;116824;1216;25706;-65
2021/03/28 06:01:31;;;;;;;50.10;25.50;;;;;;;7.13;59.02;100402.30;116577;1216;22994;-66
2021/03/28 06:04:44;;;;;;;43.30;23.60;;;;;;;7.29;59.10;100395.56;116641;1212;22947;-66
2021/03/28 06:08:13;;;;;;;42.15;24.05;;;;;;;7.48;58.35;100393.82;116866;1212;22962;-64
2021/03/28 06:11:02;;;;;;;48.80;22.40;;;;;;;7.69;57.46;100402.45;116359;1216;22929;-64
2021/03/28 06:14:03;;;;;;;43.30;23.45;;;;;;;7.86;57.10;100399.22;116509;1215;22969;-66
2021/03/28 06:17:08;;;;;;;47.55;22.90;;;;;;;8.01;56.23;100400.58;116370;1219;23053;-65
2021/03/28 06:19:58;;;;;;;47.60;24.27;;;;;;;8.17;56.40;100399.20;116259;1218;22898;-66
2021/03/28 06:22:49;;;;;;;40.70;23.30;;;;;;;8.31;56.26;100394.50;116366;1218;22865;-65
2021/03/28 06:25:41;;;;;;;46.70;24.30;;;;;;;8.45;55.60;100396.91;116243;1218;23041;-66
2021/03/28 06:28:40;;;;;;;46.50;22.00;;;;;;;8.61;55.65;100395.52;116352;1218;23509;-66
2021/03/28 06:31:19;;;;;;;45.60;23.40;;;;;;;8.77;55.01;100388.67;116263;1218;23573;-67
2021/03/28 06:34:24;;;;;;;51.00;24.40;;;;;;;8.90;54.63;100393.13;116369;1218;22881;-66
2021/03/28 06:37:32;;;;;;;46.40;22.90;;;;;;;9.04;54.08;100384.60;116402;1215;22880;-66
2021/03/28 06:40:39;;;;;;;40.77;23.47;;;;;;;9.18;54.03;100383.38;116474;1215;22883;-66
2021/03/28 06:43:25;;;;;;;45.37;22.53;;;;;;;9.32;53.13;100383.22;116557;1215;23480;-66
2021/03/28 06:46:25;;;;;;;41.90;22.70;;;;;;;9.44;53.02;100374.05;116503;1215;23507;-66
2021/03/28 06:49:13;;;;;;;43.85;21.85;;;;;;;9.56;52.35;100374.92;116689;1216;22941;-65
2021/03/28 06:52:01;;;;;;;44.40;22.60;;;;;;;9.69;52.20;100376.63;116714;1212;22987;-66
2021/03/28 06:55:07;;;;;;;43.45;22.10;;;;;;;9.81;51.84;100374.77;117170;1212;23773;-67
2021/03/28 06:58:04;;;;;;;50.60;21.90;;;;;;;9.91;51.00;100374.22;117149;1212;23820;-65
2021/03/28 07:01:09;;;;;;;40.40;21.05;;;;;;;10.02;50.90;100373.42;117047;1214;23009;-65
2021/03/28 07:03:59;;;;;;;38.25;18.95;;;;;;;10.12;50.55;100367.39;117208;1211;23199;-66
2021/03/28 07:06:45;;;;;;;37.60;20.60;;;;;;;10.22;50.49;100365.80;117047;1209;22892;-65
2021/03/28 07:09:43;;;;;;;38.05;20.30;;;;;;;10.35;49.87;100369.36;117154;1214;22938;-65
2021/03/28 07:12:38;;;;;;;34.30;19.18;;;;;;;10.47;49.60;100376.47;117027;1214;22894;-66
2021/03/28 07:15:44;;;;;;;42.00;20.45;;;;;;;10.60;49.60;100368.05;117189;1209;23035;-66
2021/03/28 07:18:56;;;;;;;32.90;18.45;;;;;;;10.72;49.04;100364.48;117066;1209;23340;-66
2021/03/28 07:21:45;;;;;;;43.40;20.87;;;;;;;10.82;48.87;100359.28;116721;1212;23036;-66
2021/03/28 07:24:36;;;;;;;36.50;18.90;;;;;;;10.91;48.64;100357.84;116851;1212;23537;-65
2021/03/28 07:27:16;;;;;;;44.40;19.85;;;;;;;10.98;48.35;100359.35;116753;1212;22888;-66
2021/03/28 07:30:10;;;;;;;47.07;20.23;;;;;;;11.05;47.54;100359.23;117077;1212;22917;-66
2021/03/28 07:32:49;;;;;;;36.25;18.75;;;;;;;11.14;46.91;100365.13;116921;1212;22947;-66
2021/03/28 07:35:35;;;;;;;37.50;18.10;;;;;;;11.19;46.72;100363.34;116896;1212;22960;-66
2021/03/28 07:38:40;;;;;;;36.95;17.35;;;;;;;11.25;46.95;100359.63;116998;1211;22884;-67
2021/03/28 07:41:40;;;;;;;40.93;19.03;;;;;;;11.30;46.42;100342.55;116896;1212;23693;-66
2021/03/28 07:44:22;;;;;;;38.60;18.67;;;;;;;11.44;46.47;100351.28;116848;1212;22817;-67
2021/03/28 07:47:15;;;;;;;32.50;18.83;;;;;;;11.48;46.46;100345.09;116979;1212;23832;-66
2021/03/28 07:49:58;;;;;;;35.07;17.83;;;;;;;11.54;46.19;100349.56;117174;1212;22962;-66
2021/03/28 07:52:35;;;;;;;31.70;16.67;;;;;;;11.61;45.47;100350.26;116872;1215;22930;-66
2021/03/28 07:55:23;;;;;;;29.83;16.88;;;;;;;11.69;45.34;100349.02;116857;1212;22836;-66
2021/03/28 07:58:16;;;;;;;32.00;16.63;;;;;;;11.76;45.45;100349.74;116823;1209;23302;-69
2021/03/28 08:00:53;;;;;;;31.40;16.57;;;;;;;11.84;45.18;100351.23;117227;1212;22789;-67
2021/03/28 08:03:44;;;;;;;31.43;16.53;;;;;;;11.94;44.73;100352.26;117127;1209;22861;-67
2021/03/28 08:06:12;;;;;;;32.03;15.40;;;;;;;12.03;43.65;100347.20;117226;1208;22868;-68
2021/03/28 08:09:01;;;;;;;25.20;15.55;;;;;;;12.06;43.47;100345.89;117237;1208;23508;-67
2021/03/28 08:11:28;;;;;;;23.83;15.33;;;;;;;12.09;43.16;100342.67;117266;1209;22845;-69
2021/03/28 08:14:03;;;;;;;22.33;15.07;;;;;;;12.12;42.82;100342.98;117205;1209;22978;-67
2021/03/28 08:16:36;;;;;;;103.35;65.03;;;;;;;12.15;42.62;100347.95;117225;1209;22795;-68
2021/03/28 08:21:17;;;;;;;67.47;39.03;;;;;;;12.20;42.30;100348.05;113387;1204;27636;-67
2021/03/28 08:24:05;;;;;;;30.13;17.18;;;;;;;12.21;42.33;100338.78;117316;1208;22938;-68
2021/03/28 08:27:10;;;;;;;31.30;17.78;;;;;;;12.24;42.29;100341.02;117420;1209;23057;-67
2021/03/28 08:29:59;;;;;;;21.70;14.07;;;;;;;12.29;42.60;100342.98;117206;1212;22880;-68
2021/03/28 08:32:58;;;;;;;24.10;15.33;;;;;;;12.36;42.94;100332.72;117417;1208;22797;-68
2021/03/28 08:35:50;;;;;;;46.23;32.73;;;;;;;12.44;42.02;100335.02;117361;1209;23723;-68
2021/03/28 08:38:39;;;;;;;38.70;22.97;;;;;;;12.47;41.63;100323.59;117252;1209;23505;-68
2021/03/28 08:41:28;;;;;;;31.95;21.83;;;;;;;12.47;41.64;100330.97;117229;1212;22920;-68
2021/03/28 08:44:11;;;;;;;61.67;46.17;;;;;;;12.46;41.61;100323.84;117172;1209;23753;-68
2021/03/28 08:47:00;;;;;;;34.05;18.68;;;;;;;12.49;41.70;100326.91;117092;1209;22852;-68
2021/03/28 08:49:50;;;;;;;29.03;15.45;;;;;;;12.55;41.64;100325.89;117172;1208;23251;-69
2021/03/28 08:53:06;;;;;;;31.83;18.58;;;;;;;12.61;41.67;100326.80;117191;1207;22868;-68
2021/03/28 08:55:53;;;;;;;36.53;21.90;;;;;;;12.66;41.39;100319.51;117107;1208;22882;-68
2021/03/28 08:58:25;;;;;;;33.88;18.85;;;;;;;12.66;41.14;100315.95;117215;1209;22983;-66
2021/03/28 09:01:12;;;;;;;26.80;16.48;;;;;;;12.68;40.83;100320.09;117147;1212;23750;-68
2021/03/28 09:03:54;;;;;;;38.48;20.13;;;;;;;12.70;41.18;100314.34;117213;1208;22895;-68
2021/03/28 09:06:48;;;;;;;28.05;17.63;;;;;;;12.71;41.18;100321.47;115232;1209;23193;-68
2021/03/28 09:09:42;;;;;;;50.68;40.03;;;;;;;12.71;41.49;100316.83;117228;1212;22896;-68
2021/03/28 09:12:34;;;;;;;45.93;31.63;;;;;;;12.74;41.58;100316.33;117144;1209;22925;-68
2021/03/28 09:15:40;;;;;;;24.27;15.23;;;;;;;12.80;41.52;100311.77;117236;1209;23168;-69
2021/03/28 09:18:59;;;;;;;23.28;15.08;;;;;;;12.83;41.40;100307.70;117213;1209;22865;-68
2021/03/28 09:21:51;;;;;;;28.80;18.75;;;;;;;12.88;42.04;100310.48;116794;1218;24211;-67
2021/03/28 09:24:46;;;;;;;29.73;19.13;;;;;;;12.93;41.95;100310.56;116901;1212;24012;-66
2021/03/28 09:27:48;;;;;;;28.75;15.68;;;;;;;12.97;41.43;100315.28;116785;1212;22892;-65
2021/03/28 09:30:34;;;;;;;23.88;15.33;;;;;;;13.02;41.37;100306.28;116840;1212;22833;-65
2021/03/28 09:33:39;;;;;;;22.90;14.85;;;;;;;13.07;41.52;100301.72;116769;1213;22932;-66
2021/03/28 09:36:13;;;;;;;23.30;15.47;;;;;;;13.14;41.18;100297.94;116899;1212;22859;-66
2021/03/28 09:38:40;;;;;;;23.93;15.60;;;;;;;13.17;41.15;100298.30;116777;1212;23027;-66
2021/03/28 09:41:21;;;;;;;25.30;14.45;;;;;;;13.21;40.77;100304.92;116812;1213;22885;-66
2021/03/28 09:44:00;;;;;;;42.65;21.20;;;;;;;13.24;40.54;100296.20;116816;1212;22880;-66
2021/03/28 09:46:33;;;;;;;26.40;18.60;;;;;;;13.29;40.83;100287.20;116860;1212;23061;-66
2021/03/28 09:49:22;;;;;;;31.35;17.45;;;;;;;13.30;41.23;100291.59;116877;1210;22902;-66
2021/03/28 09:52:20;;;;;;;26.13;15.18;;;;;;;13.34;40.37;100285.36;116836;1212;22859;-67
2021/03/28 09:55:26;;;;;;;24.70;15.90;;;;;;;13.37;40.18;100282.11;116842;1212;22840;-66
2021/03/28 09:58:14;;;;;;;25.18;14.30;;;;;;;13.37;40.16;100281.28;117088;1210;22849;-66
2021/03/28 10:00:52;;;;;;;23.93;15.13;;;;;;;13.34;40.01;100277.14;117216;1208;24103;-66
2021/03/28 10:03:36;;;;;;;22.03;15.13;;;;;;;13.33;40.47;100283.70;117123;1209;23516;-66
2021/03/28 10:06:25;;;;;;;27.88;15.00;;;;;;;13.38;40.66;100280.20;115946;1209;26059;-67
2021/03/28 10:09:30;;;;;;;20.70;15.58;;;;;;;13.42;40.41;100278.58;113532;1209;24909;-67
2021/03/28 10:12:04;;;;;;;33.80;16.25;;;;;;;13.45;39.83;100275.33;112849;1218;23308;-68
2021/03/28 10:14:40;;;;;;;28.87;16.20;;;;;;;13.44;40.24;100263.55;116646;1213;23795;-68
2021/03/28 10:17:14;;;;;;;19.78;14.70;;;;;;;13.46;40.55;100271.52;116837;1215;23123;-66
2021/03/28 10:19:43;;;;;;;22.60;15.50;;;;;;;13.47;40.55;100270.42;116747;1213;22941;-66
2021/03/28 10:22:48;;;;;;;29.90;17.25;;;;;;;13.50;40.67;100267.18;116811;1212;22891;-66
2021/03/28 10:25:31;;;;;;;25.45;18.40;;;;;;;13.54;40.62;100267.50;116573;1215;22911;-66
2021/03/28 10:28:17;;;;;;;36.00;19.83;;;;;;;13.59;40.44;100259.31;116900;1212;22974;-68
2021/03/28 10:31:11;;;;;;;39.25;17.10;;;;;;;13.63;40.70;100264.02;116705;1218;22935;-65
2021/03/28 10:33:39;;;;;;;40.00;23.63;;;;;;;13.69;41.03;100256.69;116757;1212;23058;-67
2021/03/28 10:36:30;;;;;;;34.50;21.13;;;;;;;13.74;41.50;100259.45;116899;1212;23760;-67
2021/03/28 10:39:26;;;;;;;32.10;19.53;;;;;;;13.84;40.88;100266.95;116827;1212;22944;-63
2021/03/28 10:42:27;;;;;;;55.00;33.30;;;;;;;13.87;40.27;100255.44;116805;1217;22976;-65
2021/03/28 10:45:26;;;;;;;26.17;16.63;;;;;;;13.89;40.38;100254.09;116702;1216;23575;-67
2021/03/28 10:48:12;;;;;;;34.83;19.20;;;;;;;13.85;39.99;100252.96;117022;1209;23073;-67
2021/03/28 10:50:46;;;;;;;34.00;18.30;;;;;;;13.83;40.43;100252.42;117129;1209;23566;-67
2021/03/28 10:53:30;;;;;;;32.03;18.28;;;;;;;13.85;40.81;100255.70;117249;1212;22970;-67
2021/03/28 10:56:18;;;;;;;33.17;19.17;;;;;;;13.86;40.61;100242.83;117158;1208;22909;-66
2021/03/28 10:59:10;;;;;;;56.45;30.95;;;;;;;13.86;40.55;100243.66;117219;1209;22987;-67
2021/03/28 11:01:42;;;;;;;34.80;21.65;;;;;;;13.87;40.74;100236.27;117097;1212;23523;-67
2021/03/28 11:04:31;;;;;;;26.80;16.48;;;;;;;13.86;40.25;100238.18;117247;1209;22832;-67
2021/03/28 11:07:25;;;;;;;34.13;20.17;;;;;;;13.85;40.56;100239.27;117174;1209;22871;-67
2021/03/28 11:10:21;;;;;;;27.55;17.55;;;;;;;13.86;41.29;100237.35;117192;1212;23630;-66
2021/03/28 11:13:25;;;;;;;31.17;18.40;;;;;;;13.90;40.83;100233.02;116789;1212;22947;-64
2021/03/28 11:15:59;;;;;;;48.78;33.15;;;;;;;13.91;40.44;100226.44;116988;1211;23003;-68
2021/03/28 11:18:32;;;;;;;44.00;29.28;;;;;;;13.92;40.34;100234.41;116916;1212;22933;-67
2021/03/28 11:21:27;;;;;;;32.55;19.58;;;;;;;13.93;40.79;100233.31;116804;1215;22997;-67
2021/03/28 11:24:16;;;;;;;34.83;21.20;;;;;;;13.95;40.95;100224.84;116924;1212;23736;-67
2021/03/28 11:27:03;;;;;;;;;;;;;;;13.99;41.14;100225.98;116861;1212;24016;-63
2021/03/28 11:29:52;;;;;;;36.77;22.40;;;;;;;14.03;40.90;100218.86;116860;1215;22403;-65
2021/03/28 11:32:45;;;;;;;35.60;22.45;;;;;;;14.04;40.51;100221.34;116746;1212;23048;-67
2021/03/28 11:35:20;;;;;;;31.57;20.73;;;;;;;14.05;40.92;100214.77;116938;1212;23009;-65
2021/03/28 11:38:15;;;;;;;33.33;19.78;;;;;;;14.07;41.18;100209.03;116818;1212;22973;-65
2021/03/28 11:40:47;;;;;;;30.47;19.67;;;;;;;14.11;40.98;100221.13;116890;1212;22910;-66
2021/03/28 11:43:21;;;;;;;34.37;21.03;;;;;;;14.15;40.51;100214.00;116815;1212;23553;-65
2021/03/28 11:46:08;;;;;;;25.77;17.67;;;;;;;14.18;40.92;100218.95;116816;1212;23520;-62
2021/03/28 11:48:55;;;;;;;29.40;16.60;;;;;;;14.22;40.17;100213.78;114864;1212;23249;-62
2021/03/28 11:51:33;;;;;;;36.10;20.58;;;;;;;14.22;40.30;100208.30;117207;1209;22952;-62
2021/03/28 11:54:13;;;;;;;43.23;23.85;;;;;;;14.20;40.41;100208.56;117163;1209;22814;-62
2021/03/28 11:56:54;;;;;;;56.70;34.10;;;;;;;14.20;40.32;100202.25;117160;1212;23621;-62
2021/03/28 11:59:23;;;;;;;38.07;22.60;;;;;;;14.19;41.04;100208.82;117127;1212;22836;-62
2021/03/28 12:02:01;;;;;;;26.90;17.10;;;;;;;14.22;40.58;100208.30;117177;1211;23034;-62
2021/03/28 12:04:40;;;;;;;27.67;19.13;;;;;;;14.24;40.44;100201.47;117167;1212;25057;-62
2021/03/28 12:07:36;;;;;;;34.40;19.70;;;;;;;14.27;40.51;100191.89;117158;1211;23671;-62
2021/03/28 12:10:03;;;;;;;26.38;16.68;;;;;;;14.29;40.12;100198.73;117046;1212;22831;-62
2021/03/28 12:12:42;;;;;;;26.60;17.53;;;;;;;14.32;39.73;100189.16;116812;1215;22817;-62
2021/03/28 12:15:44;;;;;;;29.53;17.97;;;;;;;14.35;39.56;100196.86;117180;1212;24106;-62
2021/03/28 12:18:23;;;;;;;23.95;14.70;;;;;;;14.35;39.81;100185.89;117024;1212;23026;-62
2021/03/28 12:21:02;;;;;;;25.43;16.03;;;;;;;14.31;39.56;100177.37;117163;1212;22937;-62
2021/03/28 12:23:43;;;;;;;22.88;15.90;;;;;;;14.26;39.76;100176.53;116988;1211;22954;-62
2021/03/28 12:26:19;;;;;;;26.10;17.65;;;;;;;14.24;40.46;100178.72;116934;1212;23045;-62
2021/03/28 12:28:53;;;;;;;58.03;29.98;;;;;;;14.25;40.38;100174.88;117101;1209;22832;-62
2021/03/28 12:31:47;;;;;;;41.60;22.40;;;;;;;14.26;40.28;100177.36;117164;1212;22836;-62
2021/03/28 12:34:30;;;;;;;28.70;19.85;;;;;;;14.28;40.69;100175.19;117144;1209;22927;-63
2021/03/28 12:37:08;;;;;;;39.13;21.00;;;;;;;14.30;40.75;100170.23;117258;1209;23528;-63
2021/03/28 12:39:43;;;;;;;34.60;21.73;;;;;;;14.32;41.12;100172.71;117138;1208;22893;-63